Bottle Hollow, Utah
Current Conditions -  °F | °C
As of 9:53 PM on Thursday 30 Oct 2014 (Local Time) from KVEL Reporting Station
Clear Clear  
Wind Chill: 43°   Ceiling: Unl
Heat Index: 45°   Visibility: 10mi
Dew Point: 27°   Wind: 5mph
Humidity: 49%   Direction: 330°NNW
Pressure: 30.26"   Gusts: NA
Location:  40.2958°N, 109.84°W
Report Text: KVEL 310353Z AUTO 33004KT 10SM CLR 07/M03 A3026 RMK AO2 SLP237 T00721028
Loading
Personal Weather Stations






























Interactive Weather Map
Tropical Storm Tracking
New forecast layout! Learn more

10-Day Weather Forecast

Advertisements
Track Severe Weather on mobile